Pagrindinis puslapis
METAR-TAF:

METAR-TAF

Oro uostai :

Rota, Marianų salos, Jungtinės Amerikos Valstijos

platuma: 14-11N, ilguma: 145-15E, Aukštis: 185 m

Dabartinis oras

Ataskaita buvo paskelbta 1 valandą ir 15 minutes, ne 07:50 UTC
Vėjas 8 kt iš Rytų
Temperatūra 28°C
Drėgmė 79%
Slėgis 1010 hPa
Matomumas: 11.3 km
Su prošvaistėmis ne aukštis 1300 ft
Su prošvaistėmis ne aukštis 10000 ft

METAR: PGRO 220750Z 09008KT 7SM BKN013 BKN100 28/24 A2983 RMK LAST

Laikas: 19:05 (09:05 UTC)

Prognozė

Ataskaita buvo paskelbta 3 valandos ir 45 minutes, ne 05:20 UTC
Prognozė galioja nuo 22 metu 06 UTC su 23 metu 06 UTC
Vėjas 12 kt iš Rytų su gūsio iki 20 kt
Matomumas: 10 km
Išsisklaidę debesys ne aukštis 1600 ft
Su prošvaistėmis ne aukštis 4000 ft
Liūtis kaimynystėje
Nuo 22 metu 0900 UTC
Vėjas 8 kt iš Rytų
Matomumas: 10 km
Mažai debesys ne aukštis 2000 ft
Liūtis kaimynystėje,

TAF: PGRO 220520Z 2206/2306 09012G20KT P6SM VCSH SCT016 BKN040 FM220900 09008KT P6SM VCSH FEW020

Orai ataskaitas ir orų prognozės (METAR, TAF).

turimą stotys yra geltonos ir raudonos taškus žemėlapyje.

Perkelti pele per norėdami pamatyti stoties vardą.

Tada spustelėkite, norėdami matyti oro stebėjimo ir prognozės.

Norėdami pakeisti žemėlapį: spustelėkite ant žalios mygtukų su juodo kryžiaus žemyn,; žalią mygtuką su brūkšneliu, jei norite nutolinti; arba žalių rodyklių gretimoms žemėlapius.


METAR-TAF: